Terminal Aerodrome Forecast
Issued by NWS

Home | Current Version | Previous Version | Text Only | Print | Product List | Glossary Off
Versions: 1 2 3 4 5 6 7 8 9 10 11 12 13 14 15 16 17 18 19 20 21 22 23 24 25 26 27 28 29 30 31 32

000
FTUS43 KLOT 212105 AAB
TAFMDW
TAF AMD
KMDW 212105Z 2121/2218 18007KT P6SM SCT060 BKN150
     FM212200 16006KT P6SM VCTS SCT060 BKN080CB
      TEMPO 2122/2123 01010KT
     FM212300 08006KT P6SM SCT040 BKN200
     FM220200 17006KT 6SM -SHRA VCTS SCT040 BKN100CB
      TEMPO 2203/2204 31020G30KT 1SM TSRA BKN040CB
     FM220500 19008KT 5SM -SHRA VCTS BKN040 BKN080CB
      TEMPO 2205/2209 2SM TSRA SCT015 BKN025CB
     FM221200 24014KT P6SM SCT035 BKN050=

USA.gov is the U.S. government's official web portal to all federal, state and local government web resources and services.